createdAt,value
2018-12-23T00:01:23.592Z,272.35
2018-12-23T00:03:54.483Z,230.55
2018-12-23T00:06:25.033Z,229.40
2018-12-23T00:08:56.064Z,229.25
2018-12-23T00:11:26.619Z,204.23
2018-12-23T00:13:57.253Z,203.70
2018-12-23T00:16:27.968Z,176.37
2018-12-23T00:18:58.240Z,149.18
2018-12-23T00:21:28.981Z,133.70
2018-12-23T00:23:59.552Z,204.13
2018-12-23T00:26:30.585Z,267.07
2018-12-23T00:29:01.275Z,271.77
2018-12-23T00:31:31.963Z,279.05
2018-12-23T00:34:02.560Z,277.07
2018-12-23T00:36:33.316Z,276.15
2018-12-23T00:39:04.958Z,286.57
2018-12-23T00:41:36.684Z,267.32
2018-12-23T00:44:08.717Z,270.77
2018-12-23T00:46:39.188Z,263.82
2018-12-23T00:49:09.917Z,263.05
2018-12-23T00:51:40.462Z,266.65
2018-12-23T00:54:11.194Z,248.03
2018-12-23T00:56:41.919Z,263.85
2018-12-23T00:59:12.634Z,254.50
2018-12-23T01:01:43.525Z,239.75
2018-12-23T01:04:14.681Z,240.77
2018-12-23T01:06:45.423Z,237.55
2018-12-23T01:09:16.004Z,233.28
2018-12-23T01:11:46.818Z,229.72
2018-12-23T01:14:17.504Z,226.50
2018-12-23T01:16:48.148Z,228.62
2018-12-23T01:19:18.812Z,222.58
2018-12-23T01:21:49.499Z,219.25
2018-12-23T01:24:20.107Z,209.87
2018-12-23T01:26:50.838Z,217.10
2018-12-23T01:29:21.556Z,207.18
2018-12-23T01:31:52.372Z,211.20
2018-12-23T01:34:24.156Z,210.97
2018-12-23T01:36:54.943Z,210.20
2018-12-23T01:39:26.104Z,204.68
2018-12-23T01:41:56.725Z,206.95
2018-12-23T01:44:27.479Z,206.40
2018-12-23T01:46:58.552Z,214.88
2018-12-23T01:49:29.039Z,216.93
2018-12-23T01:51:59.972Z,212.15
2018-12-23T01:54:30.673Z,211.75
2018-12-23T01:57:01.338Z,209.65
2018-12-23T01:59:32.055Z,214.25
2018-12-23T02:02:02.791Z,211.28
2018-12-23T02:04:33.580Z,210.05
2018-12-23T02:07:04.250Z,207.65
2018-12-23T02:09:35.204Z,215.03
2018-12-23T02:12:05.862Z,215.72
2018-12-23T02:14:36.519Z,207.80
2018-12-23T02:17:07.232Z,209.10
2018-12-23T02:19:37.883Z,185.88
2018-12-23T02:22:08.690Z,171.87
2018-12-23T02:24:39.346Z,165.12
2018-12-23T02:27:10.159Z,152.87
2018-12-23T02:29:40.659Z,150.90
2018-12-23T02:32:11.509Z,147.93
2018-12-23T02:34:42.119Z,174.75
2018-12-23T02:37:13.009Z,135.25
2018-12-23T02:39:43.604Z,117.10
2018-12-23T02:42:14.342Z,126.22
2018-12-23T02:44:44.797Z,120.10
2018-12-23T02:47:15.584Z,105.30
2018-12-23T02:49:45.959Z,106.40
2018-12-23T02:52:16.814Z,106.58
2018-12-23T02:54:48.476Z,99.00
2018-12-23T02:57:19.258Z,99.87
2018-12-23T02:59:49.959Z,96.37
2018-12-23T03:02:21.776Z,92.15
2018-12-23T03:04:52.450Z,98.65
2018-12-23T03:07:23.139Z,80.77
2018-12-23T03:09:53.797Z,68.97
2018-12-23T03:12:24.644Z,60.83
2018-12-23T03:14:55.675Z,47.53
2018-12-23T03:17:26.845Z,36.95
2018-12-23T03:19:57.960Z,20.55
2018-12-23T03:22:28.861Z,17.05
2018-12-23T03:24:59.514Z,10.43
2018-12-23T03:27:30.206Z,8.48
2018-12-23T03:30:00.624Z,6.00
2018-12-23T03:32:31.541Z,5.58
2018-12-23T03:35:02.149Z,4.42
2018-12-23T03:37:32.662Z,4.28
2018-12-23T03:40:03.197Z,4.00
2018-12-23T03:42:33.714Z,3.87
2018-12-23T03:45:04.639Z,3.52
2018-12-23T03:47:35.451Z,3.80
2018-12-23T03:50:07.002Z,3.40
2018-12-23T03:52:37.657Z,3.55
2018-12-23T03:55:08.554Z,3.33
2018-12-23T03:57:39.172Z,3.33
2018-12-23T04:00:10.181Z,2.90
2018-12-23T04:02:40.788Z,3.02
2018-12-23T04:05:11.504Z,2.77
2018-12-23T04:07:42.259Z,3.30
2018-12-23T04:10:12.723Z,42.67
2018-12-23T04:12:43.316Z,56.45
2018-12-23T04:15:14.114Z,59.30
2018-12-23T04:17:45.570Z,66.42
2018-12-23T04:20:16.677Z,74.05
2018-12-23T04:22:47.897Z,69.55
2018-12-23T04:25:18.741Z,69.25
2018-12-23T04:27:49.346Z,68.30
2018-12-23T04:30:19.959Z,36.48
2018-12-23T04:32:50.755Z,30.52
2018-12-23T04:35:21.567Z,19.77
2018-12-23T04:37:52.526Z,14.63
2018-12-23T04:40:23.461Z,11.00
2018-12-23T04:42:54.379Z,10.75
2018-12-23T04:45:25.016Z,10.25
2018-12-23T04:47:55.868Z,11.75
2018-12-23T04:50:26.667Z,10.03
2018-12-23T04:52:57.409Z,10.85
2018-12-23T04:55:28.162Z,18.70
2018-12-23T04:57:58.868Z,21.42
2018-12-23T05:00:29.719Z,24.10
2018-12-23T05:03:00.676Z,22.75
2018-12-23T05:05:31.246Z,21.05
2018-12-23T05:08:02.043Z,19.73
2018-12-23T05:10:32.938Z,19.07
2018-12-23T05:13:03.611Z,17.73
2018-12-23T05:15:34.284Z,13.83
2018-12-23T05:18:04.879Z,13.03
2018-12-23T05:20:35.434Z,12.20
2018-12-23T05:23:06.113Z,12.25
2018-12-23T05:25:36.878Z,11.68
2018-12-23T05:28:07.655Z,9.93
2018-12-23T05:30:38.304Z,8.93
2018-12-23T05:33:09.084Z,10.55
2018-12-23T05:35:39.484Z,10.48
2018-12-23T05:38:10.341Z,10.63
2018-12-23T05:40:41.170Z,10.45
2018-12-23T05:43:11.857Z,10.60
2018-12-23T05:45:42.359Z,12.70
2018-12-23T05:48:12.956Z,12.53
2018-12-23T05:50:43.715Z,17.62
2018-12-23T05:53:14.514Z,15.20
2018-12-23T05:55:43.760Z,14.83
2018-12-23T05:58:14.523Z,14.85
2018-12-23T06:00:45.091Z,13.58
2018-12-23T06:03:15.632Z,12.13
2018-12-23T06:05:46.306Z,9.88
2018-12-23T06:08:16.730Z,11.08
2018-12-23T06:10:47.269Z,9.35
2018-12-23T06:13:17.908Z,9.33
2018-12-23T06:15:48.427Z,9.35
2018-12-23T06:18:19.153Z,9.55
2018-12-23T06:20:49.859Z,10.28
2018-12-23T06:23:20.413Z,9.55
2018-12-23T06:25:51.242Z,10.03
2018-12-23T06:28:21.703Z,9.20
2018-12-23T06:30:52.216Z,10.88
2018-12-23T06:33:22.702Z,10.60
2018-12-23T06:35:53.454Z,12.07
2018-12-23T06:38:24.072Z,15.68
2018-12-23T06:40:54.844Z,19.98
2018-12-23T06:43:25.434Z,17.95
2018-12-23T06:45:56.300Z,21.00
2018-12-23T06:48:27.040Z,20.40
2018-12-23T06:50:57.826Z,19.50
2018-12-23T06:53:28.650Z,18.40
2018-12-23T06:55:59.280Z,18.75
2018-12-23T06:58:30.348Z,21.20
2018-12-23T07:01:01.128Z,17.82
2018-12-23T07:03:31.888Z,19.07
2018-12-23T07:06:02.343Z,17.20
2018-12-23T07:08:32.900Z,22.37
2018-12-23T07:11:03.514Z,24.47
2018-12-23T07:13:34.339Z,22.20
2018-12-23T07:16:04.950Z,19.50
2018-12-23T07:18:35.831Z,18.35
2018-12-23T07:21:06.726Z,16.23
2018-12-23T07:23:37.596Z,15.28
2018-12-23T07:26:09.261Z,14.43
2018-12-23T07:28:40.156Z,14.50
2018-12-23T07:31:10.971Z,14.03
2018-12-23T07:33:41.671Z,13.50
2018-12-23T07:36:12.302Z,16.27
2018-12-23T07:38:42.977Z,16.07
2018-12-23T07:41:13.834Z,16.32
2018-12-23T07:43:44.558Z,14.35
2018-12-23T07:46:15.563Z,13.55
2018-12-23T07:48:46.330Z,14.18
2018-12-23T07:51:17.148Z,12.40
2018-12-23T07:53:48.066Z,11.65
2018-12-23T07:56:18.832Z,12.23
2018-12-23T07:58:49.558Z,11.60
2018-12-23T08:01:20.216Z,12.65
2018-12-23T08:03:51.055Z,11.22
2018-12-23T08:06:21.937Z,13.13
2018-12-23T08:08:52.908Z,12.55
2018-12-23T08:11:23.669Z,12.58
2018-12-23T08:13:54.765Z,10.72
2018-12-23T08:16:26.460Z,6.95
2018-12-23T08:18:57.200Z,5.22
2018-12-23T08:21:28.812Z,3.63
2018-12-23T08:23:59.403Z,3.47
2018-12-23T08:26:29.719Z,3.73
2018-12-23T08:29:00.332Z,5.47
2018-12-23T08:31:30.875Z,5.37
2018-12-23T08:34:01.297Z,6.43
2018-12-23T08:36:31.758Z,8.47
2018-12-23T08:39:02.431Z,8.40
2018-12-23T08:41:33.136Z,8.67
2018-12-23T08:44:03.868Z,10.33
2018-12-23T08:46:39.163Z,10.30
2018-12-23T08:49:06.974Z,11.17
2018-12-23T08:51:38.507Z,10.40
2018-12-23T08:54:08.950Z,12.50
2018-12-23T08:56:39.471Z,10.17
2018-12-23T08:59:09.881Z,10.13
2018-12-23T09:01:40.078Z,9.63
2018-12-23T09:04:10.398Z,9.17
2018-12-23T09:06:40.563Z,8.90
2018-12-23T09:09:10.864Z,8.17
2018-12-23T09:11:42.898Z,7.90
2018-12-23T09:14:12.996Z,6.77
2018-12-23T09:16:43.618Z,6.73
2018-12-23T09:19:13.857Z,7.30
2018-12-23T09:21:44.225Z,6.83
2018-12-23T09:24:14.350Z,5.73
2018-12-23T09:26:45.037Z,5.15
2018-12-23T09:29:15.411Z,4.97
2018-12-23T09:31:45.678Z,5.33
2018-12-23T09:34:16.498Z,4.80
2018-12-23T09:36:47.826Z,5.33
2018-12-23T09:39:18.800Z,5.95
2018-12-23T09:41:49.676Z,4.97
2018-12-23T09:44:20.074Z,5.70
2018-12-23T09:46:50.643Z,6.67
2018-12-23T09:49:21.355Z,6.37
2018-12-23T09:51:51.659Z,6.57
2018-12-23T09:54:22.112Z,6.00
2018-12-23T09:56:53.156Z,5.63
2018-12-23T09:59:23.850Z,4.97
2018-12-23T10:01:53.847Z,6.00
2018-12-23T10:04:24.531Z,5.70
2018-12-23T10:06:55.082Z,5.90
2018-12-23T10:09:25.433Z,5.90
2018-12-23T10:11:56.342Z,5.27
2018-12-23T10:14:27.124Z,6.67
2018-12-23T10:16:57.733Z,6.97
2018-12-23T10:19:28.274Z,5.87
2018-12-23T10:21:58.902Z,6.37
2018-12-23T10:24:29.631Z,6.80
2018-12-23T10:27:00.134Z,5.90
2018-12-23T10:29:30.795Z,7.00
2018-12-23T10:32:01.247Z,6.40
2018-12-23T10:34:33.178Z,7.22
2018-12-23T10:37:03.866Z,7.15
2018-12-23T10:39:34.953Z,6.85
2018-12-23T10:42:05.436Z,8.35
2018-12-23T10:44:35.726Z,8.43
2018-12-23T10:47:06.107Z,8.00
2018-12-23T10:49:36.532Z,6.70
2018-12-23T10:52:06.537Z,6.13
2018-12-23T10:54:36.879Z,6.63
2018-12-23T10:57:07.223Z,6.00
2018-12-23T10:59:37.859Z,6.03
2018-12-23T11:02:13.626Z,5.80
2018-12-23T11:04:41.119Z,4.60
2018-12-23T11:07:11.531Z,4.87
2018-12-23T11:09:41.984Z,4.40
2018-12-23T11:12:12.311Z,4.80
2018-12-23T11:14:42.874Z,4.63
2018-12-23T11:17:13.271Z,4.90
2018-12-23T11:19:43.605Z,4.70
2018-12-23T11:22:14.038Z,4.93
2018-12-23T11:24:44.490Z,4.53
2018-12-23T11:27:14.974Z,5.03
2018-12-23T11:29:45.171Z,4.13
2018-12-23T11:32:15.299Z,4.60
2018-12-23T11:34:45.597Z,4.80
2018-12-23T11:37:16.018Z,4.77
2018-12-23T11:39:46.539Z,5.20
2018-12-23T11:42:16.905Z,9.80
2018-12-23T11:44:47.302Z,6.20
2018-12-23T11:47:17.662Z,6.53
2018-12-23T11:49:48.056Z,7.07
2018-12-23T11:52:18.627Z,5.53
2018-12-23T11:54:48.974Z,8.37
2018-12-23T11:57:19.163Z,5.60
2018-12-23T11:59:49.596Z,7.97
2018-12-23T12:02:19.890Z,5.10
2018-12-23T12:04:50.471Z,5.80
2018-12-23T12:07:20.704Z,6.40
2018-12-23T12:09:51.252Z,6.47
2018-12-23T12:12:21.467Z,8.33
2018-12-23T12:14:51.728Z,6.83
2018-12-23T12:17:22.371Z,7.47
2018-12-23T12:19:53.147Z,5.97
2018-12-23T12:22:23.666Z,7.55
2018-12-23T12:24:54.382Z,7.15
2018-12-23T12:27:25.003Z,6.42
2018-12-23T12:29:55.777Z,7.28
2018-12-23T12:32:26.523Z,6.17
2018-12-23T12:34:59.182Z,6.23
2018-12-23T12:37:30.306Z,5.50
2018-12-23T12:40:02.042Z,5.47
2018-12-23T12:42:32.595Z,4.85
2018-12-23T12:45:03.325Z,5.12
2018-12-23T12:47:34.100Z,4.90
2018-12-23T12:50:04.754Z,4.75
2018-12-23T12:52:35.287Z,4.55
2018-12-23T12:55:05.958Z,7.55
2018-12-23T12:57:36.426Z,5.45
2018-12-23T13:00:08.173Z,5.80
2018-12-23T13:02:38.997Z,5.12
2018-12-23T13:05:09.848Z,5.10
2018-12-23T13:07:40.990Z,5.03
2018-12-23T13:10:11.705Z,5.45
2018-12-23T13:12:42.287Z,4.67
2018-12-23T13:15:13.300Z,5.03
2018-12-23T13:17:44.032Z,5.08
2018-12-23T13:20:14.878Z,4.58
2018-12-23T13:22:45.810Z,4.00
2018-12-23T13:25:16.749Z,5.50
2018-12-23T13:27:47.707Z,5.85
2018-12-23T13:30:18.418Z,7.03
2018-12-23T13:32:49.080Z,10.98
2018-12-23T13:35:19.865Z,4.60
2018-12-23T13:37:50.112Z,5.17
2018-12-23T13:40:35.516Z,3.92
2018-12-23T13:43:13.419Z,3.20
2018-12-23T13:46:03.939Z,2.80
2018-12-23T13:48:45.018Z,3.08
2018-12-23T13:51:26.476Z,3.12
2018-12-23T13:54:43.206Z,2.50
2018-12-23T13:57:31.336Z,2.60
2018-12-23T14:01:10.571Z,2.40
2018-12-23T14:04:52.277Z,2.20
2018-12-23T14:09:38.192Z,2.22
2018-12-23T14:12:08.815Z,1.92
2018-12-23T14:14:39.452Z,2.10
2018-12-23T14:17:10.178Z,2.08
2018-12-23T14:19:40.775Z,2.12
2018-12-23T14:22:11.571Z,1.85
2018-12-23T14:24:42.318Z,2.83
2018-12-23T14:27:12.917Z,1.82
2018-12-23T14:29:43.674Z,1.92
2018-12-23T14:32:14.380Z,2.60
2018-12-23T14:34:45.252Z,2.00
2018-12-23T14:37:15.799Z,1.95
2018-12-23T14:39:47.366Z,1.80
2018-12-23T14:42:18.123Z,3.50
2018-12-23T14:44:48.852Z,2.60
2018-12-23T14:47:19.630Z,2.85
2018-12-23T14:49:50.503Z,1.55
2018-12-23T14:52:22.260Z,2.40
2018-12-23T14:54:53.195Z,1.70
2018-12-23T14:57:23.639Z,1.42
2018-12-23T14:59:54.223Z,1.70
2018-12-23T15:02:24.644Z,2.47
2018-12-23T15:04:55.157Z,1.80
2018-12-23T15:07:25.967Z,1.70
2018-12-23T15:09:56.631Z,1.90
2018-12-23T15:12:27.334Z,2.10
2018-12-23T15:14:58.134Z,1.85
2018-12-23T15:17:28.747Z,1.90
2018-12-23T15:19:59.510Z,1.70
2018-12-23T15:22:29.754Z,2.00
2018-12-23T15:25:00.316Z,1.70
2018-12-23T15:27:31.007Z,2.08
2018-12-23T15:30:01.599Z,1.98
2018-12-23T15:32:32.318Z,2.10
2018-12-23T15:35:02.735Z,2.58
2018-12-23T15:37:33.276Z,2.92
2018-12-23T15:40:04.353Z,2.92
2018-12-23T15:42:34.951Z,3.85
2018-12-23T15:45:05.628Z,3.17
2018-12-23T15:47:35.978Z,14.28
2018-12-23T15:50:06.876Z,3.55
2018-12-23T15:52:37.246Z,5.45
2018-12-23T15:55:07.588Z,4.55
2018-12-23T15:57:38.175Z,4.28
2018-12-23T16:00:09.547Z,3.52
2018-12-23T16:02:40.050Z,4.70
2018-12-23T16:05:10.660Z,5.22
2018-12-23T16:07:41.443Z,3.95
2018-12-23T16:10:12.307Z,3.87
2018-12-23T16:12:42.897Z,4.00
2018-12-23T16:15:14.734Z,5.08
2018-12-23T16:17:45.147Z,5.30
2018-12-23T16:20:16.694Z,7.90
2018-12-23T16:22:47.430Z,6.42
2018-12-23T16:25:18.200Z,6.85
2018-12-23T16:27:48.837Z,6.78
2018-12-23T16:30:19.350Z,5.85
2018-12-23T16:32:49.853Z,5.75
2018-12-23T16:35:20.322Z,5.15
2018-12-23T16:37:50.793Z,5.78
2018-12-23T16:40:21.438Z,5.62
2018-12-23T16:42:51.829Z,5.55
2018-12-23T16:45:23.357Z,6.60
2018-12-23T16:47:53.890Z,5.78
2018-12-23T16:50:24.562Z,7.67
2018-12-23T16:52:54.855Z,5.50
2018-12-23T16:55:25.270Z,5.62
2018-12-23T16:57:56.576Z,4.40
2018-12-23T17:00:27.327Z,4.65
2018-12-23T17:02:57.873Z,3.10
2018-12-23T17:05:28.196Z,2.98
2018-12-23T17:07:58.946Z,2.98
2018-12-23T17:10:29.759Z,3.17
2018-12-23T17:13:00.411Z,3.95
2018-12-23T17:15:31.483Z,5.22
2018-12-23T17:18:02.067Z,2.85
2018-12-23T17:20:32.717Z,5.40
2018-12-23T17:23:03.154Z,4.17
2018-12-23T17:25:33.798Z,5.08
2018-12-23T17:28:04.325Z,5.65
2018-12-23T17:30:34.862Z,5.03
2018-12-23T17:33:05.151Z,3.70
2018-12-23T17:35:35.770Z,4.65
2018-12-23T17:38:06.547Z,3.40
2018-12-23T17:40:37.297Z,5.05
2018-12-23T17:43:08.008Z,3.92
2018-12-23T17:45:38.447Z,4.40
2018-12-23T17:48:08.876Z,5.05
2018-12-23T17:50:39.462Z,4.28
2018-12-23T17:53:10.099Z,4.22
2018-12-23T17:55:40.679Z,5.87
2018-12-23T17:58:10.991Z,6.28
2018-12-23T18:00:41.590Z,5.60
2018-12-23T18:03:12.408Z,8.03
2018-12-23T18:05:42.948Z,5.95
2018-12-23T18:08:13.463Z,5.85
2018-12-23T18:10:44.066Z,6.62
2018-12-23T18:13:14.362Z,5.65
2018-12-23T18:15:45.131Z,7.70
2018-12-23T18:18:15.931Z,7.67
2018-12-23T18:20:46.438Z,6.42
2018-12-23T18:23:16.835Z,5.53
2018-12-23T18:25:47.238Z,4.65
2018-12-23T18:28:17.569Z,4.62
2018-12-23T18:30:48.079Z,3.90
2018-12-23T18:33:18.807Z,4.90
2018-12-23T18:35:49.414Z,5.30
2018-12-23T18:38:20.137Z,7.78
2018-12-23T18:40:50.843Z,8.78
2018-12-23T18:43:21.540Z,7.08
2018-12-23T18:45:52.332Z,12.63
2018-12-23T18:48:23.183Z,8.15
2018-12-23T18:50:53.889Z,8.35
2018-12-23T18:53:24.558Z,8.35
2018-12-23T18:55:55.348Z,8.20
2018-12-23T18:58:26.179Z,7.20
2018-12-23T19:00:59.945Z,6.45
2018-12-23T19:03:30.421Z,5.10
2018-12-23T19:06:01.418Z,4.90
2018-12-23T19:08:46.932Z,6.70
2018-12-23T19:11:26.987Z,4.08
2018-12-23T19:14:24.266Z,7.50
2018-12-23T19:19:15.527Z,6.97
2018-12-23T19:21:56.959Z,10.08
2018-12-23T19:25:45.034Z,8.50
2018-12-23T19:28:30.590Z,10.35
2018-12-23T19:31:11.912Z,8.73
2018-12-23T19:33:57.259Z,7.50
2018-12-23T19:36:44.421Z,8.38
2018-12-23T19:41:27.319Z,14.80
2018-12-23T19:44:05.731Z,16.93
2018-12-23T19:47:49.787Z,16.67
2018-12-23T19:50:30.100Z,27.27
2018-12-23T19:54:09.254Z,46.75
2018-12-23T19:58:55.646Z,45.20
2018-12-23T20:01:35.846Z,45.95
2018-12-23T20:04:25.769Z,46.90
2018-12-23T20:08:17.113Z,39.55
2018-12-23T20:10:59.234Z,36.08
2018-12-23T20:13:44.677Z,36.25
2018-12-23T20:16:30.975Z,32.73
2018-12-23T20:19:16.676Z,33.65
2018-12-23T20:22:01.804Z,30.50
2018-12-23T20:25:53.595Z,28.50
2018-12-23T20:28:37.463Z,29.05
2018-12-23T20:31:23.604Z,30.05
2018-12-23T20:36:09.961Z,30.32
2018-12-23T20:40:50.771Z,31.93
2018-12-23T20:44:32.176Z,31.75
2018-12-23T20:47:29.021Z,30.23
2018-12-23T20:51:17.988Z,29.98
2018-12-23T20:54:01.327Z,34.03
2018-12-23T20:57:46.973Z,29.23
2018-12-23T21:01:30.861Z,30.05
2018-12-23T21:04:16.981Z,30.12
2018-12-23T21:08:03.764Z,30.95
2018-12-23T21:10:48.011Z,32.35
2018-12-23T21:14:28.555Z,33.33
2018-12-23T21:17:24.579Z,33.98
2018-12-23T21:20:12.387Z,34.25
2018-12-23T21:22:59.834Z,31.90
2018-12-23T21:26:10.033Z,32.63
2018-12-23T21:29:03.904Z,30.80
2018-12-23T21:32:47.834Z,28.85
2018-12-23T21:35:31.571Z,24.37
2018-12-23T21:38:44.927Z,23.70
2018-12-23T21:41:26.122Z,22.67
2018-12-23T21:46:14.953Z,23.02
2018-12-23T21:49:08.279Z,21.07
2018-12-23T21:52:58.461Z,20.85
2018-12-23T21:55:56.406Z,21.97
2018-12-23T21:58:46.130Z,20.17
2018-12-23T22:02:27.378Z,23.10
2018-12-23T22:05:21.522Z,23.87
2018-12-23T22:08:20.748Z,18.73
2018-12-23T22:12:06.684Z,17.45
2018-12-23T22:14:37.410Z,17.37
2018-12-23T22:17:42.999Z,16.12
2018-12-23T22:20:14.324Z,14.90
2018-12-23T22:22:45.687Z,14.58
2018-12-23T22:25:17.081Z,13.13
2018-12-23T22:27:48.576Z,14.07
2018-12-23T22:30:20.113Z,14.55
2018-12-23T22:32:51.331Z,15.05
2018-12-23T22:35:22.660Z,13.68
2018-12-23T22:37:53.979Z,14.20
2018-12-23T22:40:25.357Z,14.20
2018-12-23T22:42:56.670Z,15.38
2018-12-23T22:45:27.885Z,15.78
2018-12-23T22:47:59.205Z,17.77
2018-12-23T22:50:30.414Z,21.68
2018-12-23T22:53:01.615Z,17.17
2018-12-23T22:55:32.783Z,19.12
2018-12-23T22:58:04.066Z,21.33
2018-12-23T23:00:35.491Z,21.33
2018-12-23T23:03:09.260Z,21.00
2018-12-23T23:05:40.028Z,21.50
2018-12-23T23:08:11.778Z,20.85
2018-12-23T23:10:43.573Z,21.70
2018-12-23T23:13:18.699Z,23.00
2018-12-23T23:15:47.975Z,19.57
2018-12-23T23:18:20.592Z,21.05
2018-12-23T23:20:51.918Z,21.40
2018-12-23T23:23:23.479Z,20.77
2018-12-23T23:25:54.602Z,24.92
2018-12-23T23:28:26.227Z,26.70
2018-12-23T23:30:57.479Z,26.07
2018-12-23T23:33:28.808Z,27.77
2018-12-23T23:36:00.181Z,29.60
2018-12-23T23:38:31.261Z,34.50
2018-12-23T23:41:02.675Z,31.17
2018-12-23T23:43:34.071Z,30.15
2018-12-23T23:46:05.480Z,30.52
2018-12-23T23:48:36.637Z,34.08
2018-12-23T23:51:07.897Z,28.12
2018-12-23T23:53:39.247Z,37.45
2018-12-23T23:56:10.775Z,36.73
2018-12-23T23:58:42.181Z,34.58
